Station Historical Data
Daily Summary for January 10, 2017 Units:  Both    English   Metric
« Previous Day
Next Day »
Daily Weekly Monthly Yearly Custom
  High: Low: Average:
Temperature: 45.1 °F /  7.3 °C 16.5 °F /  -8.6 °C 34.1 °F /  1.2 °C
Dew Point: 40.2 °F /  4.6 °C 7.6 °F /  -13.6 °C 25.8 °F /  -3.4 °C
Humidity: 86% 47% 72%
Wind Speed: 20.0mph /  32.2km/h - 6.9mph /  11.1km/h
Wind Gust: 36.0mph /  57.9km/h - -
Wind- - South
Pressure: 30.40 in /  1029.3 hPa 29.60 in /  1002.3 hPa -
Precipitation: 0.00 in /  0 mm    
Historical Graphs
 
 
Tabular Data for January 10, 2017
Time Temperature Dew Point Pressure Wind Wind Speed Wind Gust Humidity Rainfall Rate (Hourly)
00:04 18.4 °F /  -7.6 °C 8.2 °F /  -13.2 °C 30.40in /  1029.3hPa Calm   2.0mph /  3.2km/h 64% 0.00in /  0mm
00:14 18.3 °F /  -7.6 °C 8.1 °F /  -13.3 °C 30.40in /  1029.3hPa SSE 2.0mph /  3.2km/h 3.0mph /  4.8km/h 64% 0.00in /  0mm
00:19 18.2 °F /  -7.7 °C 8.1 °F /  -13.3 °C 30.40in /  1029.3hPa SSE 2.0mph /  3.2km/h 3.0mph /  4.8km/h 64% 0.00in /  0mm
00:29 17.2 °F /  -8.2 °C 7.8 °F /  -13.4 °C 30.40in /  1029.3hPa Calm   2.0mph /  3.2km/h 66% 0.00in /  0mm
00:34 16.7 °F /  -8.5 °C 7.6 °F /  -13.6 °C 30.40in /  1029.3hPa Calm     67% 0.00in /  0mm
00:39 16.5 °F /  -8.6 °C 7.8 °F /  -13.4 °C 30.39in /  1029hPa Calm     68% 0.00in /  0mm
00:44 16.6 °F /  -8.6 °C 7.9 °F /  -13.4 °C 30.39in /  1029hPa Calm     68% 0.00in /  0mm
00:49 17.1 °F /  -8.3 °C 8.3 °F /  -13.2 °C 30.39in /  1029hPa Calm     68% 0.00in /  0mm
00:54 17.4 °F /  -8.1 °C 8.6 °F /  -13 °C 30.40in /  1029.3hPa Calm     68% 0.00in /  0mm
01:09 18.5 °F /  -7.5 °C 9.7 °F /  -12.4 °C 30.40in /  1029.3hPa Calm     68% 0.00in /  0mm
01:14 18.6 °F /  -7.4 °C 9.5 °F /  -12.5 °C 30.39in /  1029hPa Calm     67% 0.00in /  0mm
01:19 18.7 °F /  -7.4 °C 9.6 °F /  -12.4 °C 30.38in /  1028.7hPa Calm     67% 0.00in /  0mm
01:24 19.0 °F /  -7.2 °C 9.8 °F /  -12.3 °C 30.38in /  1028.7hPa Calm   3.0mph /  4.8km/h 67% 0.00in /  0mm
01:29 19.8 °F /  -6.8 °C 10.3 °F /  -12.1 °C 30.38in /  1028.7hPa South 1.0mph /  1.6km/h 5.0mph /  8km/h 66% 0.00in /  0mm
01:34 21.2 °F /  -6 °C 10.6 °F /  -11.9 °C 30.38in /  1028.7hPa South 3.0mph /  4.8km/h 6.0mph /  9.7km/h 63% 0.00in /  0mm
01:39 22.3 °F /  -5.4 °C 11.2 °F /  -11.6 °C 30.38in /  1028.7hPa South 3.0mph /  4.8km/h 7.0mph /  11.3km/h 62% 0.00in /  0mm
01:44 23.1 °F /  -4.9 °C 11.3 °F /  -11.5 °C 30.38in /  1028.7hPa South 4.0mph /  6.4km/h 7.0mph /  11.3km/h 60% 0.00in /  0mm
01:49 23.4 °F /  -4.8 °C 11.2 °F /  -11.6 °C 30.38in /  1028.7hPa South 5.0mph /  8km/h 7.0mph /  11.3km/h 59% 0.00in /  0mm
01:54 23.7 °F /  -4.6 °C 11.1 °F /  -11.6 °C 30.38in /  1028.7hPa SSW 3.0mph /  4.8km/h 9.0mph /  14.5km/h 58% 0.00in /  0mm
01:59 23.9 °F /  -4.5 °C 11.3 °F /  -11.5 °C 30.38in /  1028.7hPa South 4.0mph /  6.4km/h 10.0mph /  16.1km/h 58% 0.00in /  0mm
02:09 24.1 °F /  -4.4 °C 11.4 °F /  -11.4 °C 30.38in /  1028.7hPa South 7.0mph /  11.3km/h 7.0mph /  11.3km/h 58% 0.00in /  0mm
02:14 24.2 °F /  -4.3 °C 11.1 °F /  -11.6 °C 30.38in /  1028.7hPa SSW 7.0mph /  11.3km/h 8.0mph /  12.9km/h 57% 0.00in /  0mm
02:19 24.3 °F /  -4.3 °C 11.6 °F /  -11.3 °C 30.38in /  1028.7hPa South 4.0mph /  6.4km/h 9.0mph /  14.5km/h 58% 0.00in /  0mm
02:24 24.4 °F /  -4.2 °C 11.7 °F /  -11.3 °C 30.38in /  1028.7hPa South 2.0mph /  3.2km/h 6.0mph /  9.7km/h 58% 0.00in /  0mm
02:29 24.5 °F /  -4.2 °C 11.8 °F /  -11.2 °C 30.38in /  1028.7hPa South 3.0mph /  4.8km/h 8.0mph /  12.9km/h 58% 0.00in /  0mm
02:34 24.6 °F /  -4.1 °C 12.3 °F /  -10.9 °C 30.38in /  1028.7hPa South 3.0mph /  4.8km/h 8.0mph /  12.9km/h 59% 0.00in /  0mm
02:39 24.7 °F /  -4.1 °C 12.0 °F /  -11.1 °C 30.38in /  1028.7hPa South 3.0mph /  4.8km/h 9.0mph /  14.5km/h 58% 0.00in /  0mm
02:44 24.7 °F /  -4.1 °C 12.0 °F /  -11.1 °C 30.37in /  1028.3hPa South 3.0mph /  4.8km/h 9.0mph /  14.5km/h 58% 0.00in /  0mm
02:49 24.8 °F /  -4 °C 12.1 °F /  -11.1 °C 30.37in /  1028.3hPa South 3.0mph /  4.8km/h 8.0mph /  12.9km/h 58% 0.00in /  0mm
02:54 24.9 °F /  -3.9 °C 12.2 °F /  -11 °C 30.37in /  1028.3hPa South 5.0mph /  8km/h 7.0mph /  11.3km/h 58% 0.00in /  0mm
02:59 25.0 °F /  -3.9 °C 12.3 °F /  -10.9 °C 30.37in /  1028.3hPa SSW 5.0mph /  8km/h 7.0mph /  11.3km/h 58% 0.00in /  0mm
03:04 25.1 °F /  -3.8 °C 12.4 °F /  -10.9 °C 30.36in /  1028hPa SSW 3.0mph /  4.8km/h 8.0mph /  12.9km/h 58% 0.00in /  0mm
03:14 25.3 °F /  -3.7 °C 12.6 °F /  -10.8 °C 30.36in /  1028hPa South 4.0mph /  6.4km/h 7.0mph /  11.3km/h 58% 0.00in /  0mm
03:19 25.4 °F /  -3.7 °C 12.7 °F /  -10.7 °C 30.35in /  1027.7hPa South 2.0mph /  3.2km/h 6.0mph /  9.7km/h 58% 0.00in /  0mm
03:24 25.4 °F /  -3.7 °C 13.1 °F /  -10.5 °C 30.35in /  1027.7hPa South 3.0mph /  4.8km/h 6.0mph /  9.7km/h 59% 0.00in /  0mm
03:34 25.5 °F /  -3.6 °C 13.1 °F /  -10.5 °C 30.34in /  1027.3hPa South 3.0mph /  4.8km/h 6.0mph /  9.7km/h 59% 0.00in /  0mm
03:39 25.6 °F /  -3.6 °C 13.2 °F /  -10.4 °C 30.34in /  1027.3hPa South 3.0mph /  4.8km/h 7.0mph /  11.3km/h 59% 0.00in /  0mm
03:44 25.7 °F /  -3.5 °C 13.3 °F /  -10.4 °C 30.34in /  1027.3hPa South 3.0mph /  4.8km/h 7.0mph /  11.3km/h 59% 0.00in /  0mm
03:49 25.8 °F /  -3.4 °C 13.4 °F /  -10.3 °C 30.34in /  1027.3hPa South 4.0mph /  6.4km/h 8.0mph /  12.9km/h 59% 0.00in /  0mm
03:54 26.0 °F /  -3.3 °C 13.2 °F /  -10.4 °C 30.34in /  1027.3hPa South 4.0mph /  6.4km/h 8.0mph /  12.9km/h 58% 0.00in /  0mm
03:59 26.2 °F /  -3.2 °C 13.4 °F /  -10.3 °C 30.34in /  1027.3hPa South 4.0mph /  6.4km/h 7.0mph /  11.3km/h 58% 0.00in /  0mm
04:04 26.3 °F /  -3.2 °C 13.5 °F /  -10.3 °C 30.34in /  1027.3hPa South 4.0mph /  6.4km/h 7.0mph /  11.3km/h 58% 0.00in /  0mm
04:09 26.4 °F /  -3.1 °C 13.6 °F /  -10.2 °C 30.33in /  1027hPa South 3.0mph /  4.8km/h 5.0mph /  8km/h 58% 0.00in /  0mm
04:14 26.5 °F /  -3.1 °C 13.7 °F /  -10.2 °C 30.33in /  1027hPa South 3.0mph /  4.8km/h 7.0mph /  11.3km/h 58% 0.00in /  0mm
04:19 26.7 °F /  -2.9 °C 13.9 °F /  -10.1 °C 30.32in /  1026.6hPa South 2.0mph /  3.2km/h 6.0mph /  9.7km/h 58% 0.00in /  0mm
04:24 26.8 °F /  -2.9 °C 14.0 °F /  -10 °C 30.32in /  1026.6hPa SSE 2.0mph /  3.2km/h 4.0mph /  6.4km/h 58% 0.00in /  0mm
04:29 27.0 °F /  -2.8 °C 14.2 °F /  -9.9 °C 30.31in /  1026.3hPa South 2.0mph /  3.2km/h 5.0mph /  8km/h 58% 0.00in /  0mm
04:34 27.2 °F /  -2.7 °C 14.0 °F /  -10 °C 30.31in /  1026.3hPa SSW 1.0mph /  1.6km/h 5.0mph /  8km/h 57% 0.00in /  0mm
04:39 27.4 °F /  -2.6 °C 14.1 °F /  -9.9 °C 30.32in /  1026.6hPa Calm   4.0mph /  6.4km/h 57% 0.00in /  0mm
04:44 27.5 °F /  -2.5 °C 14.2 °F /  -9.9 °C 30.32in /  1026.6hPa South 2.0mph /  3.2km/h 4.0mph /  6.4km/h 57% 0.00in /  0mm
04:49 27.5 °F /  -2.5 °C 14.2 °F /  -9.9 °C 30.32in /  1026.6hPa SSW 1.0mph /  1.6km/h 3.0mph /  4.8km/h 57% 0.00in /  0mm
04:54 27.6 °F /  -2.4 °C 13.9 °F /  -10.1 °C 30.31in /  1026.3hPa South 1.0mph /  1.6km/h 4.0mph /  6.4km/h 56% 0.00in /  0mm
04:59 27.8 °F /  -2.3 °C 14.1 °F /  -9.9 °C 30.31in /  1026.3hPa South 2.0mph /  3.2km/h 4.0mph /  6.4km/h 56% 0.00in /  0mm
05:04 28.0 °F /  -2.2 °C 14.3 °F /  -9.8 °C 30.31in /  1026.3hPa South 1.0mph /  1.6km/h 3.0mph /  4.8km/h 56% 0.00in /  0mm
05:09 28.2 °F /  -2.1 °C 13.7 °F /  -10.2 °C 30.31in /  1026.3hPa South 2.0mph /  3.2km/h 4.0mph /  6.4km/h 54% 0.00in /  0mm
05:19 28.3 °F /  -2.1 °C 14.2 °F /  -9.9 °C 30.31in /  1026.3hPa SSE 1.0mph /  1.6km/h 4.0mph /  6.4km/h 55% 0.00in /  0mm
05:24 28.4 °F /  -2 °C 14.7 °F /  -9.6 °C 30.31in /  1026.3hPa SSE 1.0mph /  1.6km/h 4.0mph /  6.4km/h 56% 0.00in /  0mm
05:29 28.3 °F /  -2.1 °C 14.2 °F /  -9.9 °C 30.31in /  1026.3hPa SSE 1.0mph /  1.6km/h 2.0mph /  3.2km/h 55% 0.00in /  0mm
05:34 28.5 °F /  -1.9 °C 14.4 °F /  -9.8 °C 30.30in /  1026hPa Calm   3.0mph /  4.8km/h 55% 0.00in /  0mm
05:39 28.4 °F /  -2 °C 13.9 °F /  -10.1 °C 30.31in /  1026.3hPa Calm   2.0mph /  3.2km/h 54% 0.00in /  0mm
05:44 28.4 °F /  -2 °C 14.3 °F /  -9.8 °C 30.30in /  1026hPa Calm     55% 0.00in /  0mm
05:49 28.4 °F /  -2 °C 13.9 °F /  -10.1 °C 30.30in /  1026hPa South 1.0mph /  1.6km/h 4.0mph /  6.4km/h 54% 0.00in /  0mm
05:54 28.7 °F /  -1.8 °C 14.6 °F /  -9.7 °C 30.30in /  1026hPa South 1.0mph /  1.6km/h 4.0mph /  6.4km/h 55% 0.00in /  0mm
05:59 29.0 °F /  -1.7 °C 14.4 °F /  -9.8 °C 30.30in /  1026hPa South 2.0mph /  3.2km/h 4.0mph /  6.4km/h 54% 0.00in /  0mm
06:04 29.2 °F /  -1.6 °C 13.7 °F /  -10.2 °C 30.30in /  1026hPa South 2.0mph /  3.2km/h 6.0mph /  9.7km/h 52% 0.00in /  0mm
06:09 29.7 °F /  -1.3 °C 13.8 °F /  -10.1 °C 30.30in /  1026hPa SW 3.0mph /  4.8km/h 7.0mph /  11.3km/h 51% 0.00in /  0mm
06:14 30.1 °F /  -1.1 °C 13.7 °F /  -10.2 °C 30.30in /  1026hPa South 3.0mph /  4.8km/h 8.0mph /  12.9km/h 50% 0.00in /  0mm
06:19 30.4 °F /  -0.9 °C 14.0 °F /  -10 °C 30.29in /  1025.6hPa SSE 6.0mph /  9.7km/h 8.0mph /  12.9km/h 50% 0.00in /  0mm
06:24 30.7 °F /  -0.7 °C 12.8 °F /  -10.7 °C 30.29in /  1025.6hPa SSW 4.0mph /  6.4km/h 10.0mph /  16.1km/h 47% 0.00in /  0mm
06:29 30.6 °F /  -0.8 °C 13.7 °F /  -10.2 °C 30.29in /  1025.6hPa SSW 5.0mph /  8km/h 10.0mph /  16.1km/h 49% 0.00in /  0mm
06:34 30.6 °F /  -0.8 °C 13.7 °F /  -10.2 °C 30.29in /  1025.6hPa South 5.0mph /  8km/h 8.0mph /  12.9km/h 49% 0.00in /  0mm
06:39 30.7 °F /  -0.7 °C 13.3 °F /  -10.4 °C 30.28in /  1025.3hPa South 10.0mph /  16.1km/h 11.0mph /  17.7km/h 48% 0.00in /  0mm
06:44 30.8 °F /  -0.7 °C 16.1 °F /  -8.8 °C 30.28in /  1025.3hPa SSW 5.0mph /  8km/h 17.0mph /  27.4km/h 54% 0.00in /  0mm
06:49 30.7 °F /  -0.7 °C 16.0 °F /  -8.9 °C 30.28in /  1025.3hPa SSW 9.0mph /  14.5km/h 14.0mph /  22.5km/h 54% 0.00in /  0mm
06:54 30.6 °F /  -0.8 °C 17.2 °F /  -8.2 °C 30.28in /  1025.3hPa SSW 8.0mph /  12.9km/h 18.0mph /  29km/h 57% 0.00in /  0mm
06:59 30.1 °F /  -1.1 °C 17.5 °F /  -8.1 °C 30.28in /  1025.3hPa SSW 8.0mph /  12.9km/h 12.0mph /  19.3km/h 59% 0.00in /  0mm
07:04 29.7 °F /  -1.3 °C 18.6 °F /  -7.4 °C 30.27in /  1024.9hPa SSW 7.0mph /  11.3km/h 14.0mph /  22.5km/h 63% 0.00in /  0mm
07:09 29.3 °F /  -1.5 °C 19.0 °F /  -7.2 °C 30.27in /  1024.9hPa SW 4.0mph /  6.4km/h 12.0mph /  19.3km/h 65% 0.00in /  0mm
07:14 29.1 °F /  -1.6 °C 19.5 °F /  -6.9 °C 30.26in /  1024.6hPa SW 3.0mph /  4.8km/h 8.0mph /  12.9km/h 67% 0.00in /  0mm
07:19 29.0 °F /  -1.7 °C 19.4 °F /  -7 °C 30.26in /  1024.6hPa SSW 4.0mph /  6.4km/h 8.0mph /  12.9km/h 67% 0.00in /  0mm
07:24 29.0 °F /  -1.7 °C 19.4 °F /  -7 °C 30.25in /  1024.3hPa SSW 3.0mph /  4.8km/h 7.0mph /  11.3km/h 67% 0.00in /  0mm
07:34 29.2 °F /  -1.6 °C 19.2 °F /  -7.1 °C 30.24in /  1023.9hPa South 3.0mph /  4.8km/h 7.0mph /  11.3km/h 66% 0.00in /  0mm
07:39 29.5 °F /  -1.4 °C 19.2 °F /  -7.1 °C 30.24in /  1023.9hPa SSE 5.0mph /  8km/h 6.0mph /  9.7km/h 65% 0.00in /  0mm
07:44 29.7 °F /  -1.3 °C 19.0 °F /  -7.2 °C 30.24in /  1023.9hPa SSE 6.0mph /  9.7km/h 12.0mph /  19.3km/h 64% 0.00in /  0mm
07:49 30.1 °F /  -1.1 °C 19.0 °F /  -7.2 °C 30.23in /  1023.6hPa South 5.0mph /  8km/h 12.0mph /  19.3km/h 63% 0.00in /  0mm
07:54 30.4 °F /  -0.9 °C 19.7 °F /  -6.8 °C 30.23in /  1023.6hPa South 9.0mph /  14.5km/h 13.0mph /  20.9km/h 64% 0.00in /  0mm
07:59 30.7 °F /  -0.7 °C 20.3 °F /  -6.5 °C 30.22in /  1023.2hPa South 3.0mph /  4.8km/h 13.0mph /  20.9km/h 65% 0.00in /  0mm
08:04 30.8 °F /  -0.7 °C 20.0 °F /  -6.7 °C 30.22in /  1023.2hPa South 6.0mph /  9.7km/h 13.0mph /  20.9km/h 64% 0.00in /  0mm
08:14 31.0 °F /  -0.6 °C 20.2 °F /  -6.6 °C 30.21in /  1022.9hPa South 2.0mph /  3.2km/h 13.0mph /  20.9km/h 64% 0.00in /  0mm
08:19 31.0 °F /  -0.6 °C 19.9 °F /  -6.7 °C 30.21in /  1022.9hPa South 6.0mph /  9.7km/h 13.0mph /  20.9km/h 63% 0.00in /  0mm
08:29 30.8 °F /  -0.7 °C 20.8 °F /  -6.2 °C 30.20in /  1022.6hPa SE 5.0mph /  8km/h 11.0mph /  17.7km/h 66% 0.00in /  0mm
08:34 30.7 °F /  -0.7 °C 21.0 °F /  -6.1 °C 30.20in /  1022.6hPa South 6.0mph /  9.7km/h 11.0mph /  17.7km/h 67% 0.00in /  0mm
08:39 30.7 °F /  -0.7 °C 21.4 °F /  -5.9 °C 30.21in /  1022.9hPa South 6.0mph /  9.7km/h 10.0mph /  16.1km/h 68% 0.00in /  0mm
08:44 30.7 °F /  -0.7 °C 21.4 °F /  -5.9 °C 30.21in /  1022.9hPa South 5.0mph /  8km/h 10.0mph /  16.1km/h 68% 0.00in /  0mm
08:49 30.7 °F /  -0.7 °C 21.7 °F /  -5.7 °C 30.21in /  1022.9hPa South 3.0mph /  4.8km/h 9.0mph /  14.5km/h 69% 0.00in /  0mm
08:54 30.7 °F /  -0.7 °C 21.7 °F /  -5.7 °C 30.20in /  1022.6hPa SSW 4.0mph /  6.4km/h 7.0mph /  11.3km/h 69% 0.00in /  0mm
08:59 30.7 °F /  -0.7 °C 22.1 °F /  -5.5 °C 30.20in /  1022.6hPa SSW 1.0mph /  1.6km/h 6.0mph /  9.7km/h 70% 0.00in /  0mm
09:04 30.8 °F /  -0.7 °C 22.2 °F /  -5.4 °C 30.20in /  1022.6hPa South 2.0mph /  3.2km/h 5.0mph /  8km/h 70% 0.00in /  0mm
09:09 30.8 °F /  -0.7 °C 22.2 °F /  -5.4 °C 30.19in /  1022.2hPa SSE 1.0mph /  1.6km/h 7.0mph /  11.3km/h 70% 0.00in /  0mm
09:19 31.1 °F /  -0.5 °C 22.1 °F /  -5.5 °C 30.19in /  1022.2hPa SSE 3.0mph /  4.8km/h 6.0mph /  9.7km/h 69% 0.00in /  0mm
09:24 31.2 °F /  -0.4 °C 22.5 °F /  -5.3 °C 30.19in /  1022.2hPa South 4.0mph /  6.4km/h 12.0mph /  19.3km/h 70% 0.00in /  0mm
09:29 31.6 °F /  -0.2 °C 22.6 °F /  -5.2 °C 30.18in /  1021.9hPa South 5.0mph /  8km/h 12.0mph /  19.3km/h 69% 0.00in /  0mm
09:34 31.9 °F /  -0.1 °C 22.9 °F /  -5.1 °C 30.18in /  1021.9hPa SSW 7.0mph /  11.3km/h 10.0mph /  16.1km/h 69% 0.00in /  0mm
09:39 32.1 °F /  0.1 °C 23.1 °F /  -4.9 °C 30.18in /  1021.9hPa South 5.0mph /  8km/h 10.0mph /  16.1km/h 69% 0.00in /  0mm
09:44 32.1 °F /  0.1 °C 23.4 °F /  -4.8 °C 30.18in /  1021.9hPa South 4.0mph /  6.4km/h 9.0mph /  14.5km/h 70% 0.00in /  0mm
09:54 32.5 °F /  0.3 °C 23.8 °F /  -4.6 °C 30.17in /  1021.6hPa South 3.0mph /  4.8km/h 9.0mph /  14.5km/h 70% 0.00in /  0mm
09:59 32.6 °F /  0.3 °C 23.6 °F /  -4.7 °C 30.17in /  1021.6hPa South 5.0mph /  8km/h 7.0mph /  11.3km/h 69% 0.00in /  0mm
10:09 33.0 °F /  0.6 °C 23.9 °F /  -4.5 °C 30.17in /  1021.6hPa South 4.0mph /  6.4km/h 9.0mph /  14.5km/h 69% 0.00in /  0mm
10:14 33.2 °F /  0.7 °C 24.1 °F /  -4.4 °C 30.17in /  1021.6hPa SSW 4.0mph /  6.4km/h 12.0mph /  19.3km/h 69% 0.00in /  0mm
10:19 33.3 °F /  0.7 °C 24.2 °F /  -4.3 °C 30.17in /  1021.6hPa SSE 4.0mph /  6.4km/h 7.0mph /  11.3km/h 69% 0.00in /  0mm
10:24 33.5 °F /  0.8 °C 24.1 °F /  -4.4 °C 30.16in /  1021.2hPa South 3.0mph /  4.8km/h 13.0mph /  20.9km/h 68% 0.00in /  0mm
10:34 33.8 °F /  1 °C 24.4 °F /  -4.2 °C 30.16in /  1021.2hPa SSE 9.0mph /  14.5km/h 11.0mph /  17.7km/h 68% 0.00in /  0mm
10:39 34.0 °F /  1.1 °C 24.5 °F /  -4.2 °C 30.15in /  1020.9hPa SSE 7.0mph /  11.3km/h 12.0mph /  19.3km/h 68% 0.00in /  0mm
10:44 34.0 °F /  1.1 °C 24.5 °F /  -4.2 °C 30.15in /  1020.9hPa South 5.0mph /  8km/h 12.0mph /  19.3km/h 68% 0.00in /  0mm
10:49 34.1 °F /  1.2 °C 24.6 °F /  -4.1 °C 30.15in /  1020.9hPa South 6.0mph /  9.7km/h 12.0mph /  19.3km/h 68% 0.00in /  0mm
10:54 34.1 °F /  1.2 °C 24.6 °F /  -4.1 °C 30.14in /  1020.5hPa South 6.0mph /  9.7km/h 11.0mph /  17.7km/h 68% 0.00in /  0mm
10:59 34.1 °F /  1.2 °C 24.6 °F /  -4.1 °C 30.13in /  1020.2hPa SSW 7.0mph /  11.3km/h 8.0mph /  12.9km/h 68% 0.00in /  0mm
11:04 34.2 °F /  1.2 °C 24.7 °F /  -4.1 °C 30.12in /  1019.9hPa South 6.0mph /  9.7km/h 7.0mph /  11.3km/h 68% 0.00in /  0mm
11:09 34.3 °F /  1.3 °C 24.8 °F /  -4 °C 30.11in /  1019.5hPa South 4.0mph /  6.4km/h 8.0mph /  12.9km/h 68% 0.00in /  0mm
11:14 34.4 °F /  1.3 °C 24.9 °F /  -3.9 °C 30.11in /  1019.5hPa South 4.0mph /  6.4km/h 9.0mph /  14.5km/h 68% 0.00in /  0mm
11:19 34.6 °F /  1.4 °C 24.8 °F /  -4 °C 30.10in /  1019.2hPa SSW 5.0mph /  8km/h 7.0mph /  11.3km/h 67% 0.00in /  0mm
11:24 34.6 °F /  1.4 °C 25.1 °F /  -3.8 °C 30.09in /  1018.8hPa South 3.0mph /  4.8km/h 8.0mph /  12.9km/h 68% 0.00in /  0mm
11:29 34.6 °F /  1.4 °C 25.1 °F /  -3.8 °C 30.09in /  1018.8hPa SE 5.0mph /  8km/h 7.0mph /  11.3km/h 68% 0.00in /  0mm
11:34 34.6 °F /  1.4 °C 25.1 °F /  -3.8 °C 30.07in /  1018.2hPa South 3.0mph /  4.8km/h 9.0mph /  14.5km/h 68% 0.00in /  0mm
11:39 34.4 °F /  1.3 °C 25.6 °F /  -3.6 °C 30.06in /  1017.8hPa SSE 5.0mph /  8km/h 9.0mph /  14.5km/h 70% 0.00in /  0mm
11:44 34.4 °F /  1.3 °C 25.3 °F /  -3.7 °C 30.06in /  1017.8hPa SSE 5.0mph /  8km/h 11.0mph /  17.7km/h 69% 0.00in /  0mm
11:49 34.4 °F /  1.3 °C 25.6 °F /  -3.6 °C 30.06in /  1017.8hPa South 5.0mph /  8km/h 13.0mph /  20.9km/h 70% 0.00in /  0mm
11:54 34.4 °F /  1.3 °C 25.6 °F /  -3.6 °C 30.05in /  1017.5hPa South 5.0mph /  8km/h 13.0mph /  20.9km/h 70% 0.00in /  0mm
11:59 34.6 °F /  1.4 °C 25.8 °F /  -3.4 °C 30.05in /  1017.5hPa SSW 5.0mph /  8km/h 12.0mph /  19.3km/h 70% 0.00in /  0mm
12:04 34.8 °F /  1.6 °C 25.7 °F /  -3.5 °C 30.03in /  1016.8hPa South 5.0mph /  8km/h 12.0mph /  19.3km/h 69% 0.00in /  0mm
12:09 35.0 °F /  1.7 °C 25.5 °F /  -3.6 °C 30.03in /  1016.8hPa South 7.0mph /  11.3km/h 14.0mph /  22.5km/h 68% 0.00in /  0mm
12:14 35.2 °F /  1.8 °C 25.7 °F /  -3.5 °C 30.02in /  1016.5hPa SSW 8.0mph /  12.9km/h 13.0mph /  20.9km/h 68% 0.00in /  0mm
12:19 35.3 °F /  1.8 °C 25.4 °F /  -3.7 °C 30.01in /  1016.1hPa South 4.0mph /  6.4km/h 11.0mph /  17.7km/h 67% 0.00in /  0mm
12:24 35.5 °F /  1.9 °C 25.6 °F /  -3.6 °C 30.01in /  1016.1hPa SSW 4.0mph /  6.4km/h 10.0mph /  16.1km/h 67% 0.00in /  0mm
12:29 35.7 °F /  2.1 °C 25.8 °F /  -3.4 °C 30.01in /  1016.1hPa SSW 5.0mph /  8km/h 10.0mph /  16.1km/h 67% 0.00in /  0mm
12:34 35.8 °F /  2.1 °C 25.9 °F /  -3.4 °C 30.00in /  1015.8hPa SSW 6.0mph /  9.7km/h 12.0mph /  19.3km/h 67% 0.00in /  0mm
12:39 35.9 °F /  2.2 °C 26.0 °F /  -3.3 °C 30.00in /  1015.8hPa SSW 6.0mph /  9.7km/h 12.0mph /  19.3km/h 67% 0.00in /  0mm
12:44 36.1 °F /  2.3 °C 26.2 °F /  -3.2 °C 29.99in /  1015.5hPa SSW 6.0mph /  9.7km/h 13.0mph /  20.9km/h 67% 0.00in /  0mm
12:49 36.1 °F /  2.3 °C 26.2 °F /  -3.2 °C 29.99in /  1015.5hPa SSW 7.0mph /  11.3km/h 13.0mph /  20.9km/h 67% 0.00in /  0mm
12:59 36.1 °F /  2.3 °C 26.2 °F /  -3.2 °C 29.99in /  1015.5hPa SSW 8.0mph /  12.9km/h 16.0mph /  25.7km/h 67% 0.00in /  0mm
13:04 36.1 °F /  2.3 °C 26.2 °F /  -3.2 °C 29.98in /  1015.1hPa South 8.0mph /  12.9km/h 16.0mph /  25.7km/h 67% 0.00in /  0mm
13:09 36.0 °F /  2.2 °C 26.5 °F /  -3.1 °C 29.98in /  1015.1hPa South 7.0mph /  11.3km/h 13.0mph /  20.9km/h 68% 0.00in /  0mm
13:14 36.1 °F /  2.3 °C 26.6 °F /  -3 °C 29.99in /  1015.5hPa South 7.0mph /  11.3km/h 13.0mph /  20.9km/h 68% 0.00in /  0mm
13:19 36.0 °F /  2.2 °C 26.8 °F /  -2.9 °C 29.99in /  1015.5hPa South 6.0mph /  9.7km/h 13.0mph /  20.9km/h 69% 0.00in /  0mm
13:24 35.9 °F /  2.2 °C 27.1 °F /  -2.7 °C 29.99in /  1015.5hPa South 6.0mph /  9.7km/h 12.0mph /  19.3km/h 70% 0.00in /  0mm
13:29 35.8 °F /  2.1 °C 27.3 °F /  -2.6 °C 29.98in /  1015.1hPa South 8.0mph /  12.9km/h 13.0mph /  20.9km/h 71% 0.00in /  0mm
13:34 35.5 °F /  1.9 °C 27.7 °F /  -2.4 °C 29.98in /  1015.1hPa South 10.0mph /  16.1km/h 11.0mph /  17.7km/h 73% 0.00in /  0mm
13:39 35.3 °F /  1.8 °C 27.8 °F /  -2.3 °C 29.98in /  1015.1hPa SW 3.0mph /  4.8km/h 12.0mph /  19.3km/h 74% 0.00in /  0mm
13:44 35.0 °F /  1.7 °C 27.9 °F /  -2.3 °C 29.97in /  1014.8hPa SSW 7.0mph /  11.3km/h 13.0mph /  20.9km/h 75% 0.00in /  0mm
13:49 34.9 °F /  1.6 °C 28.1 °F /  -2.2 °C 29.97in /  1014.8hPa SSW 7.0mph /  11.3km/h 10.0mph /  16.1km/h 76% 0.00in /  0mm
13:54 34.9 °F /  1.6 °C 28.1 °F /  -2.2 °C 29.96in /  1014.4hPa South 9.0mph /  14.5km/h 12.0mph /  19.3km/h 76% 0.00in /  0mm
13:59 34.9 °F /  1.6 °C 28.4 °F /  -2 °C 29.95in /  1014.1hPa SSE 5.0mph /  8km/h 11.0mph /  17.7km/h 77% 0.00in /  0mm
14:04 34.9 °F /  1.6 °C 28.4 °F /  -2 °C 29.95in /  1014.1hPa South 5.0mph /  8km/h 14.0mph /  22.5km/h 77% 0.00in /  0mm
14:09 35.0 °F /  1.7 °C 28.5 °F /  -1.9 °C 29.94in /  1013.8hPa South 6.0mph /  9.7km/h 14.0mph /  22.5km/h 77% 0.00in /  0mm
14:14 35.1 °F /  1.7 °C 28.6 °F /  -1.9 °C 29.94in /  1013.8hPa South 6.0mph /  9.7km/h 13.0mph /  20.9km/h 77% 0.00in /  0mm
14:19 35.1 °F /  1.7 °C 28.9 °F /  -1.7 °C 29.94in /  1013.8hPa South 6.0mph /  9.7km/h 14.0mph /  22.5km/h 78% 0.00in /  0mm
14:24 35.2 °F /  1.8 °C 29.0 °F /  -1.7 °C 29.94in /  1013.8hPa South 6.0mph /  9.7km/h 14.0mph /  22.5km/h 78% 0.00in /  0mm
14:29 35.3 °F /  1.8 °C 29.4 °F /  -1.4 °C 29.93in /  1013.4hPa South 6.0mph /  9.7km/h 15.0mph /  24.1km/h 79% 0.00in /  0mm
14:34 35.4 °F /  1.9 °C 29.5 °F /  -1.4 °C 29.93in /  1013.4hPa South 7.0mph /  11.3km/h 15.0mph /  24.1km/h 79% 0.00in /  0mm
14:39 35.5 °F /  1.9 °C 29.9 °F /  -1.2 °C 29.92in /  1013.1hPa South 6.0mph /  9.7km/h 11.0mph /  17.7km/h 80% 0.00in /  0mm
14:44 35.6 °F /  2 °C 30.0 °F /  -1.1 °C 29.92in /  1013.1hPa South 13.0mph /  20.9km/h 16.0mph /  25.7km/h 80% 0.00in /  0mm
14:49 35.8 °F /  2.1 °C 30.5 °F /  -0.8 °C 29.92in /  1013.1hPa South 9.0mph /  14.5km/h 17.0mph /  27.4km/h 81% 0.00in /  0mm
14:54 35.8 °F /  2.1 °C 30.8 °F /  -0.7 °C 29.91in /  1012.8hPa SE 6.0mph /  9.7km/h 13.0mph /  20.9km/h 82% 0.00in /  0mm
14:59 35.7 °F /  2.1 °C 31.0 °F /  -0.6 °C 29.91in /  1012.8hPa WSW 5.0mph /  8km/h 12.0mph /  19.3km/h 83% 0.00in /  0mm
15:04 35.7 °F /  2.1 °C 31.3 °F /  -0.4 °C 29.90in /  1012.4hPa South 7.0mph /  11.3km/h 14.0mph /  22.5km/h 84% 0.00in /  0mm
15:09 36.0 °F /  2.2 °C 31.6 °F /  -0.2 °C 29.90in /  1012.4hPa South 11.0mph /  17.7km/h 18.0mph /  29km/h 84% 0.00in /  0mm
15:14 36.0 °F /  2.2 °C 31.6 °F /  -0.2 °C 29.89in /  1012.1hPa South 9.0mph /  14.5km/h 18.0mph /  29km/h 84% 0.01in /  0.25mm
15:19 36.0 °F /  2.2 °C 31.6 °F /  -0.2 °C 29.89in /  1012.1hPa South 9.0mph /  14.5km/h 17.0mph /  27.4km/h 84% 0.01in /  0.25mm
15:24 36.1 °F /  2.3 °C 31.7 °F /  -0.2 °C 29.88in /  1011.7hPa South 9.0mph /  14.5km/h 19.0mph /  30.6km/h 84% 0.01in /  0.25mm
15:29 36.4 °F /  2.4 °C 32.0 °F /  0 °C 29.88in /  1011.7hPa South 9.0mph /  14.5km/h 19.0mph /  30.6km/h 84% 0.01in /  0.25mm
15:34 36.5 °F /  2.5 °C 31.8 °F /  -0.1 °C 29.88in /  1011.7hPa South 15.0mph /  24.1km/h 17.0mph /  27.4km/h 83% 0.01in /  0.25mm
15:39 36.6 °F /  2.6 °C 31.9 °F /  -0.1 °C 29.87in /  1011.4hPa SSE 6.0mph /  9.7km/h 18.0mph /  29km/h 83% 0.01in /  0.25mm
15:44 36.5 °F /  2.5 °C 32.1 °F /  0.1 °C 29.87in /  1011.4hPa South 9.0mph /  14.5km/h 14.0mph /  22.5km/h 84% 0.01in /  0.25mm
15:49 36.4 °F /  2.4 °C 32.0 °F /  0 °C 29.87in /  1011.4hPa South 8.0mph /  12.9km/h 14.0mph /  22.5km/h 84% 0.01in /  0.25mm
15:54 36.5 °F /  2.5 °C 32.1 °F /  0.1 °C 29.86in /  1011.1hPa South 9.0mph /  14.5km/h 19.0mph /  30.6km/h 84% 0.01in /  0.25mm
15:59 36.7 °F /  2.6 °C 32.0 °F /  0 °C 29.86in /  1011.1hPa SSE 7.0mph /  11.3km/h 20.0mph /  32.2km/h 83% 0.01in /  0.25mm
16:04 36.7 °F /  2.6 °C 32.0 °F /  0 °C 29.85in /  1010.7hPa South 5.0mph /  8km/h 16.0mph /  25.7km/h 83% 0.01in /  0.25mm
16:09 36.8 °F /  2.7 °C 32.1 °F /  0.1 °C 29.85in /  1010.7hPa South 12.0mph /  19.3km/h 13.0mph /  20.9km/h 83% 0.01in /  0.25mm
16:14 36.9 °F /  2.7 °C 32.2 °F /  0.1 °C 29.85in /  1010.7hPa SSW 10.0mph /  16.1km/h 14.0mph /  22.5km/h 83% 0.00in /  0mm
16:19 37.1 °F /  2.8 °C 32.4 °F /  0.2 °C 29.85in /  1010.7hPa South 8.0mph /  12.9km/h 17.0mph /  27.4km/h 83% 0.01in /  0.25mm
16:24 37.1 °F /  2.8 °C 32.4 °F /  0.2 °C 29.84in /  1010.4hPa South 8.0mph /  12.9km/h 19.0mph /  30.6km/h 83% 0.01in /  0.25mm
16:29 37.3 °F /  2.9 °C 32.6 °F /  0.3 °C 29.84in /  1010.4hPa SSW 7.0mph /  11.3km/h 17.0mph /  27.4km/h 83% 0.01in /  0.25mm
16:34 37.3 °F /  2.9 °C 32.6 °F /  0.3 °C 29.84in /  1010.4hPa South 6.0mph /  9.7km/h 19.0mph /  30.6km/h 83% 0.01in /  0.25mm
16:39 37.3 °F /  2.9 °C 32.9 °F /  0.5 °C 29.83in /  1010hPa SSW 7.0mph /  11.3km/h 18.0mph /  29km/h 84% 0.02in /  0.51mm
16:44 37.4 °F /  3 °C 33.0 °F /  0.6 °C 29.83in /  1010hPa SSE 9.0mph /  14.5km/h 18.0mph /  29km/h 84% 0.02in /  0.51mm
16:49 37.6 °F /  3.1 °C 33.2 °F /  0.7 °C 29.83in /  1010hPa South 14.0mph /  22.5km/h 16.0mph /  25.7km/h 84% 0.02in /  0.51mm
16:54 37.8 °F /  3.2 °C 33.1 °F /  0.6 °C 29.82in /  1009.7hPa South 8.0mph /  12.9km/h 18.0mph /  29km/h 83% 0.02in /  0.51mm
16:59 37.8 °F /  3.2 °C 33.1 °F /  0.6 °C 29.82in /  1009.7hPa South 10.0mph /  16.1km/h 19.0mph /  30.6km/h 83% 0.02in /  0.51mm
17:04 37.7 °F /  3.2 °C 33.0 °F /  0.6 °C 29.82in /  1009.7hPa South 10.0mph /  16.1km/h 23.0mph /  37km/h 83% 0.02in /  0.51mm
17:09 37.7 °F /  3.2 °C 33.3 °F /  0.7 °C 29.81in /  1009.4hPa South 11.0mph /  17.7km/h 23.0mph /  37km/h 84% 0.02in /  0.51mm
17:14 37.7 °F /  3.2 °C 33.3 °F /  0.7 °C 29.82in /  1009.7hPa South 12.0mph /  19.3km/h 21.0mph /  33.8km/h 84% 0.02in /  0.51mm
17:19 37.7 °F /  3.2 °C 33.3 °F /  0.7 °C 29.81in /  1009.4hPa SSW 5.0mph /  8km/h 16.0mph /  25.7km/h 84% 0.01in /  0.25mm
17:24 37.7 °F /  3.2 °C 33.3 °F /  0.7 °C 29.81in /  1009.4hPa South 14.0mph /  22.5km/h 18.0mph /  29km/h 84% 0.01in /  0.25mm
17:29 37.8 °F /  3.2 °C 33.4 °F /  0.8 °C 29.81in /  1009.4hPa South 9.0mph /  14.5km/h 19.0mph /  30.6km/h 84% 0.01in /  0.25mm
17:34 38.0 °F /  3.3 °C 33.6 °F /  0.9 °C 29.80in /  1009hPa South 9.0mph /  14.5km/h 19.0mph /  30.6km/h 84% 0.01in /  0.25mm
17:39 38.4 °F /  3.6 °C 34.0 °F /  1.1 °C 29.80in /  1009hPa South 8.0mph /  12.9km/h 18.0mph /  29km/h 84% 0.00in /  0mm
17:44 38.8 °F /  3.8 °C 34.1 °F /  1.2 °C 29.79in /  1008.7hPa SE 8.0mph /  12.9km/h 17.0mph /  27.4km/h 83% 0.00in /  0mm
17:49 39.1 °F /  3.9 °C 34.4 °F /  1.3 °C 29.79in /  1008.7hPa SW 6.0mph /  9.7km/h 24.0mph /  38.6km/h 83% 0.00in /  0mm
17:54 39.3 °F /  4.1 °C 34.6 °F /  1.4 °C 29.79in /  1008.7hPa South 14.0mph /  22.5km/h 22.0mph /  35.4km/h 83% 0.01in /  0.25mm
17:59 39.6 °F /  4.2 °C 35.2 °F /  1.8 °C 29.78in /  1008.4hPa SSW 8.0mph /  12.9km/h 22.0mph /  35.4km/h 84% 0.01in /  0.25mm
18:04 39.8 °F /  4.3 °C 35.1 °F /  1.7 °C 29.78in /  1008.4hPa South 12.0mph /  19.3km/h 24.0mph /  38.6km/h 83% 0.01in /  0.25mm
18:09 39.7 °F /  4.3 °C 35.3 °F /  1.8 °C 29.77in /  1008hPa South 12.0mph /  19.3km/h 24.0mph /  38.6km/h 84% 0.01in /  0.25mm
18:14 39.7 °F /  4.3 °C 35.3 °F /  1.8 °C 29.77in /  1008hPa South 12.0mph /  19.3km/h 28.0mph /  45.1km/h 84% 0.02in /  0.51mm
18:19 39.7 °F /  4.3 °C 35.3 °F /  1.8 °C 29.77in /  1008hPa South 12.0mph /  19.3km/h 28.0mph /  45.1km/h 84% 0.03in /  0.76mm
18:24 39.8 °F /  4.3 °C 35.7 °F /  2.1 °C 29.77in /  1008hPa SSW 6.0mph /  9.7km/h 23.0mph /  37km/h 85% 0.04in /  1.02mm
18:29 39.9 °F /  4.4 °C 36.1 °F /  2.3 °C 29.76in /  1007.7hPa South 4.0mph /  6.4km/h 24.0mph /  38.6km/h 86% 0.06in /  1.52mm
18:34 40.2 °F /  4.6 °C 36.3 °F /  2.4 °C 29.76in /  1007.7hPa SSW 12.0mph /  19.3km/h 23.0mph /  37km/h 86% 0.07in /  1.78mm
18:39 40.3 °F /  4.6 °C 36.1 °F /  2.3 °C 29.75in /  1007.3hPa South 12.0mph /  19.3km/h 27.0mph /  43.5km/h 85% 0.09in /  2.29mm
18:44 40.5 °F /  4.7 °C 36.6 °F /  2.6 °C 29.75in /  1007.3hPa South 12.0mph /  19.3km/h 28.0mph /  45.1km/h 86% 0.09in /  2.29mm
18:49 40.7 °F /  4.8 °C 36.8 °F /  2.7 °C 29.75in /  1007.3hPa South 12.0mph /  19.3km/h 28.0mph /  45.1km/h 86% 0.10in /  2.54mm
18:54 40.7 °F /  4.8 °C 36.5 °F /  2.5 °C 29.74in /  1007hPa South 8.0mph /  12.9km/h 21.0mph /  33.8km/h 85% 0.09in /  2.29mm
18:59 40.7 °F /  4.8 °C 36.5 °F /  2.5 °C 29.73in /  1006.7hPa SW 14.0mph /  22.5km/h 22.0mph /  35.4km/h 85% 0.10in /  2.54mm
19:04 41.0 °F /  5 °C 36.8 °F /  2.7 °C 29.73in /  1006.7hPa South 7.0mph /  11.3km/h 27.0mph /  43.5km/h 85% 0.10in /  2.54mm
19:09 41.2 °F /  5.1 °C 37.0 °F /  2.8 °C 29.73in /  1006.7hPa SW 12.0mph /  19.3km/h 31.0mph /  49.9km/h 85% 0.10in /  2.54mm
19:14 41.4 °F /  5.2 °C 36.9 °F /  2.7 °C 29.72in /  1006.3hPa South 11.0mph /  17.7km/h 31.0mph /  49.9km/h 84% 0.09in /  2.29mm
19:19 41.5 °F /  5.3 °C 37.0 °F /  2.8 °C 29.72in /  1006.3hPa South 11.0mph /  17.7km/h 28.0mph /  45.1km/h 84% 0.08in /  2.03mm
19:24 41.5 °F /  5.3 °C 37.0 °F /  2.8 °C 29.72in /  1006.3hPa South 11.0mph /  17.7km/h 20.0mph /  32.2km/h 84% 0.08in /  2.03mm
19:29 41.7 °F /  5.4 °C 37.5 °F /  3.1 °C 29.72in /  1006.3hPa SSW 5.0mph /  8km/h 22.0mph /  35.4km/h 85% 0.06in /  1.52mm
19:34 41.9 °F /  5.5 °C 37.7 °F /  3.2 °C 29.71in /  1006hPa SW 15.0mph /  24.1km/h 26.0mph /  41.8km/h 85% 0.06in /  1.52mm
19:39 42.1 °F /  5.6 °C 37.6 °F /  3.1 °C 29.72in /  1006.3hPa South 15.0mph /  24.1km/h 25.0mph /  40.2km/h 84% 0.04in /  1.02mm
19:44 42.2 °F /  5.7 °C 37.7 °F /  3.2 °C 29.71in /  1006hPa South 11.0mph /  17.7km/h 25.0mph /  40.2km/h 84% 0.04in /  1.02mm
19:49 42.2 °F /  5.7 °C 37.7 °F /  3.2 °C 29.70in /  1005.6hPa South 12.0mph /  19.3km/h 27.0mph /  43.5km/h 84% 0.03in /  0.76mm
19:54 42.2 °F /  5.7 °C 37.7 °F /  3.2 °C 29.69in /  1005.3hPa South 12.0mph /  19.3km/h 27.0mph /  43.5km/h 84% 0.03in /  0.76mm
19:59 42.2 °F /  5.7 °C 37.7 °F /  3.2 °C 29.70in /  1005.6hPa South 11.0mph /  17.7km/h 22.0mph /  35.4km/h 84% 0.02in /  0.51mm
20:04 42.1 °F /  5.6 °C 37.6 °F /  3.1 °C 29.69in /  1005.3hPa South 11.0mph /  17.7km/h 22.0mph /  35.4km/h 84% 0.02in /  0.51mm
20:09 41.8 °F /  5.4 °C 37.3 °F /  2.9 °C 29.69in /  1005.3hPa South 10.0mph /  16.1km/h 23.0mph /  37km/h 84% 0.03in /  0.76mm
20:14 41.8 °F /  5.4 °C 37.6 °F /  3.1 °C 29.69in /  1005.3hPa SSW 6.0mph /  9.7km/h 21.0mph /  33.8km/h 85% 0.03in /  0.76mm
20:19 42.0 °F /  5.6 °C 37.8 °F /  3.2 °C 29.69in /  1005.3hPa South 11.0mph /  17.7km/h 21.0mph /  33.8km/h 85% 0.03in /  0.76mm
20:24 42.2 °F /  5.7 °C 37.7 °F /  3.2 °C 29.68in /  1005hPa South 11.0mph /  17.7km/h 22.0mph /  35.4km/h 84% 0.02in /  0.51mm
20:29 42.5 °F /  5.8 °C 38.0 °F /  3.3 °C 29.69in /  1005.3hPa SSW 13.0mph /  20.9km/h 24.0mph /  38.6km/h 84% 0.02in /  0.51mm
20:34 42.7 °F /  5.9 °C 37.9 °F /  3.3 °C 29.68in /  1005hPa SSW 18.0mph /  29km/h 19.0mph /  30.6km/h 83% 0.01in /  0.25mm
20:39 43.0 °F /  6.1 °C 38.2 °F /  3.4 °C 29.68in /  1005hPa SSE 8.0mph /  12.9km/h 23.0mph /  37km/h 83% 0.01in /  0.25mm
20:49 43.4 °F /  6.3 °C 38.3 °F /  3.5 °C 29.67in /  1004.6hPa South 18.0mph /  29km/h 24.0mph /  38.6km/h 82% 0.01in /  0.25mm
20:54 44.1 °F /  6.7 °C 38.6 °F /  3.7 °C 29.66in /  1004.3hPa South 13.0mph /  20.9km/h 24.0mph /  38.6km/h 81% 0.01in /  0.25mm
20:59 44.1 °F /  6.7 °C 38.3 °F /  3.5 °C 29.66in /  1004.3hPa SSW 17.0mph /  27.4km/h 28.0mph /  45.1km/h 80% 0.01in /  0.25mm
21:04 44.2 °F /  6.8 °C 38.4 °F /  3.6 °C 29.66in /  1004.3hPa South 15.0mph /  24.1km/h 29.0mph /  46.7km/h 80% 0.01in /  0.25mm
21:09 44.1 °F /  6.7 °C 38.0 °F /  3.3 °C 29.65in /  1003.9hPa South 14.0mph /  22.5km/h 30.0mph /  48.3km/h 79% 0.00in /  0mm
21:14 43.9 °F /  6.6 °C 38.1 °F /  3.4 °C 29.65in /  1003.9hPa South 8.0mph /  12.9km/h 21.0mph /  33.8km/h 80% 0.00in /  0mm
21:19 44.1 °F /  6.7 °C 38.3 °F /  3.5 °C 29.65in /  1003.9hPa SSW 15.0mph /  24.1km/h 27.0mph /  43.5km/h 80% 0.00in /  0mm
21:24 44.3 °F /  6.8 °C 38.2 °F /  3.4 °C 29.65in /  1003.9hPa South 12.0mph /  19.3km/h 27.0mph /  43.5km/h 79% 0.00in /  0mm
21:29 44.3 °F /  6.8 °C 38.2 °F /  3.4 °C 29.64in /  1003.6hPa South 13.0mph /  20.9km/h 26.0mph /  41.8km/h 79% 0.00in /  0mm
21:34 44.5 °F /  6.9 °C 38.4 °F /  3.6 °C 29.65in /  1003.9hPa South 15.0mph /  24.1km/h 30.0mph /  48.3km/h 79% 0.00in /  0mm
21:39 44.5 °F /  6.9 °C 38.1 °F /  3.4 °C 29.64in /  1003.6hPa SSW 17.0mph /  27.4km/h 27.0mph /  43.5km/h 78% 0.00in /  0mm
21:44 44.5 °F /  6.9 °C 38.4 °F /  3.6 °C 29.65in /  1003.9hPa WSW 17.0mph /  27.4km/h 34.0mph /  54.7km/h 79% 0.00in /  0mm
21:49 44.6 °F /  7 °C 38.2 °F /  3.4 °C 29.65in /  1003.9hPa SSE 20.0mph /  32.2km/h 29.0mph /  46.7km/h 78% 0.00in /  0mm
21:54 44.5 °F /  6.9 °C 38.1 °F /  3.4 °C 29.65in /  1003.9hPa South 18.0mph /  29km/h 20.0mph /  32.2km/h 78% 0.00in /  0mm
21:59 44.5 °F /  6.9 °C 38.1 °F /  3.4 °C 29.64in /  1003.6hPa South 11.0mph /  17.7km/h 30.0mph /  48.3km/h 78% 0.00in /  0mm
22:04 44.8 °F /  7.1 °C 38.7 °F /  3.7 °C 29.64in /  1003.6hPa South 14.0mph /  22.5km/h 30.0mph /  48.3km/h 79% 0.00in /  0mm
22:09 45.1 °F /  7.3 °C 38.6 °F /  3.7 °C 29.63in /  1003.3hPa South 15.0mph /  24.1km/h 30.0mph /  48.3km/h 78% 0.00in /  0mm
22:14 45.0 °F /  7.2 °C 38.9 °F /  3.8 °C 29.64in /  1003.6hPa South 14.0mph /  22.5km/h 27.0mph /  43.5km/h 79% 0.00in /  0mm
22:19 45.0 °F /  7.2 °C 38.9 °F /  3.8 °C 29.64in /  1003.6hPa SW 14.0mph /  22.5km/h 30.0mph /  48.3km/h 79% 0.00in /  0mm
22:24 44.5 °F /  6.9 °C 38.7 °F /  3.7 °C 29.64in /  1003.6hPa South 14.0mph /  22.5km/h 26.0mph /  41.8km/h 80% 0.00in /  0mm
22:29 44.9 °F /  7.2 °C 39.1 °F /  3.9 °C 29.63in /  1003.3hPa SSW 9.0mph /  14.5km/h 25.0mph /  40.2km/h 80% 0.00in /  0mm
22:34 44.5 °F /  6.9 °C 38.4 °F /  3.6 °C 29.63in /  1003.3hPa South 13.0mph /  20.9km/h 25.0mph /  40.2km/h 79% 0.00in /  0mm
22:39 44.1 °F /  6.7 °C 38.3 °F /  3.5 °C 29.62in /  1002.9hPa SSE 19.0mph /  30.6km/h 36.0mph /  57.9km/h 80% 0.00in /  0mm
22:44 44.9 °F /  7.2 °C 39.1 °F /  3.9 °C 29.62in /  1002.9hPa South 10.0mph /  16.1km/h 29.0mph /  46.7km/h 80% 0.00in /  0mm
22:49 44.8 °F /  7.1 °C 38.7 °F /  3.7 °C 29.62in /  1002.9hPa South 6.0mph /  9.7km/h 25.0mph /  40.2km/h 79% 0.00in /  0mm
22:54 44.4 °F /  6.9 °C 38.6 °F /  3.7 °C 29.61in /  1002.6hPa SSW 7.0mph /  11.3km/h 23.0mph /  37km/h 80% 0.01in /  0.25mm
22:59 44.0 °F /  6.7 °C 38.5 °F /  3.6 °C 29.61in /  1002.6hPa SE 8.0mph /  12.9km/h 22.0mph /  35.4km/h 81% 0.01in /  0.25mm
23:04 43.9 °F /  6.6 °C 38.8 °F /  3.8 °C 29.62in /  1002.9hPa SSW 17.0mph /  27.4km/h 25.0mph /  40.2km/h 82% 0.01in /  0.25mm
23:09 44.1 °F /  6.7 °C 39.0 °F /  3.9 °C 29.63in /  1003.3hPa South 13.0mph /  20.9km/h 25.0mph /  40.2km/h 82% 0.01in /  0.25mm
23:14 44.3 °F /  6.8 °C 39.5 °F /  4.2 °C 29.62in /  1002.9hPa SSW 12.0mph /  19.3km/h 27.0mph /  43.5km/h 83% 0.01in /  0.25mm
23:19 44.5 °F /  6.9 °C 39.7 °F /  4.3 °C 29.61in /  1002.6hPa South 15.0mph /  24.1km/h 33.0mph /  53.1km/h 83% 0.02in /  0.51mm
23:24 44.2 °F /  6.8 °C 39.4 °F /  4.1 °C 29.60in /  1002.3hPa South 16.0mph /  25.7km/h 33.0mph /  53.1km/h 83% 0.02in /  0.51mm
23:29 44.0 °F /  6.7 °C 39.5 °F /  4.2 °C 29.61in /  1002.6hPa SSW 9.0mph /  14.5km/h 24.0mph /  38.6km/h 84% 0.02in /  0.51mm
23:34 44.2 °F /  6.8 °C 39.7 °F /  4.3 °C 29.62in /  1002.9hPa SSW 7.0mph /  11.3km/h 21.0mph /  33.8km/h 84% 0.03in /  0.76mm
23:39 43.8 °F /  6.6 °C 39.3 °F /  4.1 °C 29.61in /  1002.6hPa SSW 11.0mph /  17.7km/h 21.0mph /  33.8km/h 84% 0.03in /  0.76mm
23:44 43.7 °F /  6.5 °C 39.5 °F /  4.2 °C 29.62in /  1002.9hPa SSW 10.0mph /  16.1km/h 23.0mph /  37km/h 85% 0.04in /  1.02mm
23:49 43.8 °F /  6.6 °C 39.6 °F /  4.2 °C 29.62in /  1002.9hPa South 10.0mph /  16.1km/h 21.0mph /  33.8km/h 85% 0.04in /  1.02mm
23:54 43.7 °F /  6.5 °C 39.5 °F /  4.2 °C 29.63in /  1003.3hPa SSW 10.0mph /  16.1km/h 18.0mph /  29km/h 85% 0.03in /  0.76mm
23:59 44.1 °F /  6.7 °C 40.2 °F /  4.6 °C 29.63in /  1003.3hPa WSW 6.0mph /  9.7km/h 23.0mph /  37km/h 86% 0.04in /  1.02mm
Buffalo, New York, USA
Compliments of Weather Underground - 2.25 mb